Time;durP1;ratioP1;P1;durP2;ratioP2;P2;SDS_P1;SDS_P2;PMS_P1;PMS_P2;Temp;Humidity;BMP_temperature;BMP_pressure;BME280_temperature;BME280_humidity;BME280_pressure;Samples;Min_cycle;Max_cycle;Signal;HPM_P1;HPM_P2
2022/05/24 00:01:12;;;;;;;12.50;7.30;;;16.70;99.90;;;;;;5053146;28;20052;-77
2022/05/24 00:03:40;;;;;;;10.50;7.68;;;16.70;99.90;;;;;;5051613;28;20049;-78
2022/05/24 00:06:08;;;;;;;11.52;6.95;;;16.60;99.90;;;;;;5053132;28;20037;-77
2022/05/24 00:08:37;;;;;;;10.05;7.88;;;16.60;99.90;;;;;;5048175;28;20544;-77
2022/05/24 00:11:05;;;;;;;10.52;7.60;;;16.60;99.90;;;;;;5033004;28;20045;-77
2022/05/24 00:13:34;;;;;;;12.90;8.05;;;16.50;99.90;;;;;;5032658;28;20045;-77
2022/05/24 00:16:02;;;;;;;9.05;7.78;;;16.50;99.90;;;;;;5037286;28;20107;-77
2022/05/24 00:18:31;;;;;;;9.88;6.95;;;16.40;99.90;;;;;;5055028;28;20045;-77
2022/05/24 00:21:00;;;;;;;13.15;7.60;;;16.40;99.90;;;;;;5055663;28;20086;-77
2022/05/24 00:23:29;;;;;;;10.32;7.97;;;16.30;99.90;;;;;;5055815;28;20060;-77
2022/05/24 00:25:59;;;;;;;9.93;7.80;;;16.30;99.90;;;;;;5051668;28;20056;-78
2022/05/24 00:28:28;;;;;;;11.93;8.00;;;16.30;99.90;;;;;;5052625;28;20045;-76
2022/05/24 00:30:58;;;;;;;12.07;8.75;;;16.30;99.90;;;;;;5052839;28;20043;-77
2022/05/24 00:33:26;;;;;;;11.63;8.02;;;16.20;99.90;;;;;;5054020;28;20056;-77
2022/05/24 00:35:55;;;;;;;14.02;7.78;;;16.20;99.90;;;;;;5049009;28;20047;-77
2022/05/24 00:38:28;;;;;;;11.50;7.70;;;16.20;99.90;;;;;;5055317;28;20068;-77
2022/05/24 00:41:08;;;;;;;11.13;7.97;;;16.10;99.90;;;;;;5055503;28;20049;-77
2022/05/24 00:43:39;;;;;;;9.60;7.68;;;16.20;99.90;;;;;;5056577;28;20037;-77
2022/05/24 00:46:12;;;;;;;10.68;7.53;;;16.20;99.90;;;;;;5055937;28;20068;-77
2022/05/24 00:48:46;;;;;;;9.73;7.45;;;16.20;99.90;;;;;;5055980;28;20052;-77
2022/05/24 00:51:19;;;;;;;10.65;8.23;;;16.10;99.90;;;;;;5057966;28;20041;-77
2022/05/24 00:53:52;;;;;;;11.63;8.23;;;16.10;99.90;;;;;;5056140;28;20403;-77
2022/05/24 00:56:28;;;;;;;10.27;8.10;;;16.10;99.90;;;;;;5054655;28;20055;-77
2022/05/24 00:59:00;;;;;;;17.23;12.45;;;16.10;99.90;;;;;;5055556;28;20041;-77
2022/05/24 01:01:35;;;;;;;10.57;8.20;;;16.10;99.90;;;;;;5047105;28;20052;-77
2022/05/24 01:04:03;;;;;;;9.90;7.80;;;16.10;99.90;;;;;;5063391;28;20526;-80
2022/05/24 01:06:31;;;;;;;10.82;8.55;;;16.10;99.90;;;;;;5064139;28;20040;-80
2022/05/24 01:09:02;;;;;;;9.18;7.88;;;16.10;99.90;;;;;;5065569;28;20045;-80
2022/05/24 01:11:31;;;;;;;13.05;8.48;;;16.10;99.90;;;;;;5065634;28;20039;-80
2022/05/24 01:14:00;;;;;;;9.82;8.63;;;16.00;99.90;;;;;;5061384;28;20049;-85
2022/05/24 01:16:27;;;;;;;9.98;8.23;;;16.00;99.90;;;;;;5067275;28;20041;-80
2022/05/24 01:18:56;;;;;;;10.18;8.38;;;16.00;99.90;;;;;;5067137;28;20116;-79
2022/05/24 01:21:24;;;;;;;9.57;8.45;;;16.00;99.90;;;;;;5067644;28;20037;-80
2022/05/24 01:23:59;;;;;;;11.05;8.68;;;16.00;99.90;;;;;;5067857;28;20048;-80
2022/05/24 01:26:39;;;;;;;13.03;8.77;;;16.00;99.90;;;;;;5068337;28;20037;-80
2022/05/24 01:29:09;;;;;;;11.38;8.55;;;15.90;99.90;;;;;;5063643;28;20753;-77
2022/05/24 01:37:06;;;;;;;10.75;8.27;;;15.70;99.90;;;;;;5055268;28;20067;-76
2022/05/24 01:39:34;;;;;;;11.90;8.60;;;15.70;99.90;;;;;;5054871;28;20068;-76
2022/05/24 01:42:03;;;;;;;10.70;8.60;;;15.70;99.90;;;;;;5055170;28;20040;-77
2022/05/24 01:44:38;;;;;;;14.82;9.05;;;15.70;99.90;;;;;;5053867;28;20037;-77
2022/05/24 01:47:06;;;;;;;10.27;8.47;;;15.70;99.90;;;;;;5055199;28;20396;-77
2022/05/24 01:49:36;;;;;;;10.05;8.93;;;15.70;99.90;;;;;;5049529;28;20293;-77
2022/05/24 01:52:09;;;;;;;10.20;9.10;;;15.70;99.90;;;;;;5055293;28;20384;-77
2022/05/24 01:54:40;;;;;;;13.50;8.95;;;15.70;99.90;;;;;;5052617;28;20045;-76
2022/05/24 01:57:13;;;;;;;9.38;8.25;;;15.60;99.90;;;;;;5054618;28;20045;-77
2022/05/24 01:59:46;;;;;;;10.52;8.52;;;15.60;99.90;;;;;;5054657;28;20043;-77
2022/05/24 02:02:14;;;;;;;9.25;8.23;;;15.60;99.90;;;;;;5055142;28;20056;-77
2022/05/24 02:04:42;;;;;;;13.75;8.60;;;15.60;99.90;;;;;;5055170;28;20044;-78
2022/05/24 02:07:12;;;;;;;15.18;8.98;;;15.70;99.90;;;;;;5055849;28;20083;-78
2022/05/24 02:09:42;;;;;;;13.60;9.05;;;15.60;99.90;;;;;;5054263;28;20064;-76
2022/05/24 02:12:14;;;;;;;13.90;8.60;;;15.60;99.90;;;;;;5054286;28;20103;-77
2022/05/24 02:14:46;;;;;;;12.98;9.18;;;15.40;99.90;;;;;;5053012;28;20045;-76
2022/05/24 02:17:18;;;;;;;14.13;9.35;;;15.50;99.90;;;;;;5054041;28;20078;-76
2022/05/24 02:19:49;;;;;;;14.95;9.30;;;15.40;99.90;;;;;;5052345;28;20064;-76
2022/05/24 02:22:20;;;;;;;14.23;10.25;;;15.40;99.90;;;;;;5054634;28;20051;-78
2022/05/24 02:24:56;;;;;;;11.68;9.80;;;15.30;99.90;;;;;;5054888;28;20403;-78
2022/05/24 02:27:25;;;;;;;12.13;9.95;;;15.20;99.90;;;;;;5054741;28;20098;-78
2022/05/24 02:29:53;;;;;;;14.38;10.60;;;15.20;99.90;;;;;;5054610;28;20044;-77
2022/05/24 02:32:20;;;;;;;13.05;9.75;;;15.30;99.90;;;;;;5054816;28;20051;-78
2022/05/24 02:34:47;;;;;;;12.95;10.23;;;15.30;99.90;;;;;;5064060;28;20053;-77
2022/05/24 02:37:15;;;;;;;12.23;9.43;;;15.20;99.90;;;;;;5066174;28;20060;-77
2022/05/24 02:42:31;;;;;;;13.65;9.80;;;15.10;99.90;;;;;;5058175;28;20508;-78
2022/05/24 02:44:59;;;;;;;12.25;9.95;;;15.10;99.90;;;;;;5059556;28;20059;-77
2022/05/24 02:47:27;;;;;;;13.10;10.18;;;15.10;99.90;;;;;;5070458;28;20041;-77
2022/05/24 02:49:54;;;;;;;10.90;9.52;;;15.10;99.90;;;;;;5077515;28;20060;-78
2022/05/24 02:52:21;;;;;;;11.00;9.48;;;15.00;99.90;;;;;;5077945;28;20037;-78
2022/05/24 02:54:49;;;;;;;10.57;8.85;;;15.00;99.90;;;;;;5078213;28;20056;-77
2022/05/24 02:57:16;;;;;;;12.73;9.80;;;15.00;99.90;;;;;;5059309;28;20059;-78
2022/05/24 02:59:45;;;;;;;11.43;10.02;;;15.00;99.90;;;;;;5054372;28;20055;-76
2022/05/24 03:02:12;;;;;;;12.73;9.73;;;14.90;99.90;;;;;;5052809;28;20426;-76
2022/05/24 03:04:40;;;;;;;12.70;9.93;;;14.90;99.90;;;;;;5054192;28;20064;-77
2022/05/24 03:09:52;;;;;;;13.85;9.90;;;14.90;99.90;;;;;;5055898;28;20040;-78
2022/05/24 03:15:10;;;;;;;13.27;9.93;;;15.00;99.90;;;;;;5029820;28;20069;-79
2022/05/24 03:17:38;;;;;;;11.75;9.93;;;15.10;99.90;;;;;;5058868;28;20457;-78
2022/05/24 03:20:07;;;;;;;11.63;9.38;;;15.10;99.90;;;;;;5052330;28;20049;-78
2022/05/24 03:22:34;;;;;;;12.40;10.13;;;15.10;99.90;;;;;;5053168;28;20499;-78
2022/05/24 03:25:02;;;;;;;13.93;9.98;;;15.00;99.90;;;;;;5053424;28;20073;-78
2022/05/24 03:27:29;;;;;;;13.60;9.35;;;15.10;99.90;;;;;;5054091;28;20059;-78
2022/05/24 03:29:56;;;;;;;14.27;9.57;;;15.10;99.90;;;;;;5052652;28;20041;-77
2022/05/24 03:32:26;;;;;;;12.85;10.00;;;15.20;99.90;;;;;;5053319;28;20489;-76
2022/05/24 03:34:53;;;;;;;10.90;9.65;;;15.30;99.90;;;;;;5052307;28;20485;-77
2022/05/24 03:37:21;;;;;;;15.00;9.93;;;15.30;99.90;;;;;;5053686;28;20419;-77
2022/05/24 03:39:48;;;;;;;12.07;9.30;;;15.40;99.90;;;;;;5053505;28;20052;-77
2022/05/24 03:42:16;;;;;;;14.05;10.02;;;15.40;99.90;;;;;;5052320;28;20408;-77
2022/05/24 03:44:44;;;;;;;12.20;9.57;;;15.50;99.90;;;;;;5053838;28;20435;-77
2022/05/24 03:47:11;;;;;;;14.10;9.70;;;15.50;99.90;;;;;;5053434;28;20504;-77
2022/05/24 03:49:40;;;;;;;13.80;10.05;;;15.60;99.90;;;;;;5053109;28;20136;-77
2022/05/24 03:52:08;;;;;;;11.95;9.77;;;15.70;99.90;;;;;;5053323;28;20036;-80
2022/05/24 03:54:35;;;;;;;12.25;9.07;;;16.00;99.90;;;;;;5052960;28;20435;-76
2022/05/24 03:59:47;;;;;;;11.48;8.88;;;16.70;99.90;;;;;;5053268;28;20037;-77
2022/05/24 04:02:15;;;;;;;12.38;9.40;;;17.10;99.90;;;;;;5051528;28;20060;-77
2022/05/24 04:04:44;;;;;;;13.23;8.85;;;17.30;99.90;;;;;;5052587;28;20041;-77
2022/05/24 04:07:13;;;;;;;12.00;8.10;;;17.50;99.90;;;;;;5053791;28;20500;-77
2022/05/24 04:09:40;;;;;;;12.30;9.25;;;17.70;99.90;;;;;;5055927;28;20072;-77
2022/05/24 04:12:09;;;;;;;10.20;8.68;;;17.60;99.90;;;;;;5057573;28;20037;-77
2022/05/24 04:14:37;;;;;;;14.75;8.90;;;17.60;99.90;;;;;;5056341;28;20048;-76
2022/05/24 04:17:05;;;;;;;16.30;9.20;;;17.60;99.90;;;;;;5056660;28;20041;-76
2022/05/24 04:19:32;;;;;;;27.95;10.30;;;17.70;99.90;;;;;;5058162;28;20051;-77
2022/05/24 04:22:01;;;;;;;15.50;8.40;;;17.90;99.90;;;;;;5063755;28;20045;-79
2022/05/24 04:24:29;;;;;;;33.10;10.43;;;18.40;99.90;;;;;;5066865;28;20045;-80
2022/05/24 04:26:56;;;;;;;11.05;8.07;;;19.20;99.90;;;;;;5072931;28;20073;-78
2022/05/24 04:29:23;;;;;;;9.63;7.63;;;19.60;99.90;;;;;;5062565;28;20045;-76
2022/05/24 04:31:51;;;;;;;11.68;7.78;;;20.10;99.90;;;;;;5057958;28;20033;-76
2022/05/24 04:34:20;;;;;;;13.95;8.13;;;20.50;99.90;;;;;;5057297;28;20041;-76
2022/05/24 04:36:48;;;;;;;13.30;8.13;;;21.10;99.90;;;;;;5057316;28;20407;-78
2022/05/24 04:39:17;;;;;;;12.57;7.45;;;21.40;99.90;;;;;;5057095;28;20045;-77
2022/05/24 04:44:29;;;;;;;10.98;7.55;;;22.20;99.90;;;;;;5056476;28;20519;-77
2022/05/24 04:47:09;;;;;;;11.55;7.65;;;22.60;99.90;;;;;;5056020;28;20045;-75
2022/05/24 04:49:38;;;;;;;12.90;7.43;;;23.10;99.90;;;;;;5056555;28;20041;-76
2022/05/24 04:52:07;;;;;;;9.73;7.13;;;23.20;99.90;;;;;;5056237;28;20041;-77
2022/05/24 04:54:38;;;;;;;9.65;6.72;;;23.40;99.90;;;;;;5055106;28;20047;-77
2022/05/24 04:57:06;;;;;;;10.07;7.00;;;23.10;99.90;;;;;;5055994;28;20045;-75
2022/05/24 04:59:33;;;;;;;10.95;7.43;;;22.70;99.90;;;;;;5054667;28;20044;-75
2022/05/24 05:02:01;;;;;;;10.90;7.40;;;22.40;99.90;;;;;;5034131;28;20049;-75
2022/05/24 05:04:28;;;;;;;9.68;6.88;;;22.70;99.90;;;;;;5040687;28;20044;-76
2022/05/24 05:06:56;;;;;;;11.07;6.60;;;23.20;99.90;;;;;;5057300;28;20054;-76
2022/05/24 05:09:23;;;;;;;9.85;6.72;;;23.90;99.90;;;;;;5055917;28;20048;-77
2022/05/24 05:11:52;;;;;;;16.00;6.80;;;24.50;99.90;;;;;;5055745;28;20040;-77
2022/05/24 05:14:20;;;;;;;14.57;7.97;;;24.80;99.90;;;;;;5055285;28;20041;-77
2022/05/24 05:16:47;;;;;;;15.00;7.38;;;24.90;99.90;;;;;;5055455;28;20047;-77
2022/05/24 05:19:14;;;;;;;15.30;7.25;;;25.50;99.90;;;;;;5055472;28;20052;-77
2022/05/24 05:21:42;;;;;;;15.30;7.70;;;25.90;99.90;;;;;;5055213;28;20416;-77
2022/05/24 05:24:10;;;;;;;12.32;7.07;;;26.20;99.90;;;;;;5054080;28;20041;-79
2022/05/24 05:26:37;;;;;;;12.13;7.30;;;26.40;99.90;;;;;;5055403;28;20043;-77
2022/05/24 05:29:06;;;;;;;15.70;6.75;;;26.50;99.90;;;;;;5053885;28;20412;-76
2022/05/24 05:31:32;;;;;;;12.45;7.45;;;26.50;99.90;;;;;;5056580;28;20049;-77
2022/05/24 05:34:01;;;;;;;11.82;7.97;;;26.30;99.90;;;;;;5057499;28;20071;-76
2022/05/24 05:36:31;;;;;;;11.93;7.57;;;26.00;99.90;;;;;;5056538;28;20040;-77
2022/05/24 05:38:59;;;;;;;10.00;7.47;;;25.90;99.90;;;;;;5059139;28;20053;-76
2022/05/24 05:41:29;;;;;;;12.15;7.80;;;25.60;99.90;;;;;;5056206;28;20041;-77
2022/05/24 05:43:57;;;;;;;15.75;8.40;;;25.10;99.90;;;;;;5053208;28;20047;-77
2022/05/24 05:46:26;;;;;;;12.38;7.65;;;25.00;99.90;;;;;;5054803;28;20036;-78
2022/05/24 05:48:55;;;;;;;15.13;7.93;;;25.00;99.90;;;;;;5054842;28;20496;-76
2022/05/24 05:51:23;;;;;;;17.73;11.02;;;24.90;99.90;;;;;;5054628;28;20048;-78
2022/05/24 05:53:50;;;;;;;13.60;9.32;;;25.20;99.90;;;;;;5054264;28;20044;-77
2022/05/24 05:56:20;;;;;;;14.20;10.32;;;25.60;99.90;;;;;;5054732;28;20037;-77
2022/05/24 05:58:49;;;;;;;13.05;8.82;;;25.40;99.90;;;;;;5054379;28;20037;-77
2022/05/24 06:01:18;;;;;;;12.93;9.10;;;25.20;99.90;;;;;;5054076;28;20090;-77
2022/05/24 06:03:47;;;;;;;18.85;8.80;;;25.00;99.90;;;;;;5054118;28;20060;-77
2022/05/24 06:06:19;;;;;;;14.18;8.60;;;25.00;99.90;;;;;;5053235;28;20488;-77
2022/05/24 06:08:46;;;;;;;16.08;8.93;;;25.30;99.90;;;;;;5054511;28;20435;-77
2022/05/24 06:11:15;;;;;;;14.15;8.15;;;25.20;99.90;;;;;;5054367;28;20405;-77
2022/05/24 06:13:43;;;;;;;17.27;9.02;;;25.50;99.90;;;;;;5054235;28;20086;-77
2022/05/24 06:16:10;;;;;;;12.20;8.60;;;25.70;99.90;;;;;;5054305;28;20045;-77
2022/05/24 06:18:38;;;;;;;11.77;8.50;;;25.70;99.90;;;;;;5054047;28;20045;-77
2022/05/24 06:21:07;;;;;;;13.98;8.60;;;25.70;99.90;;;;;;5054226;28;20060;-77
2022/05/24 06:23:35;;;;;;;15.43;9.00;;;25.70;99.90;;;;;;5053794;28;20048;-77
2022/05/24 06:26:03;;;;;;;18.77;9.48;;;25.60;99.90;;;;;;5061528;28;20045;-77
2022/05/24 06:28:30;;;;;;;16.27;8.68;;;25.50;99.90;;;;;;5059667;28;20475;-77
2022/05/24 06:30:58;;;;;;;11.98;8.60;;;25.30;99.90;;;;;;5057595;28;20037;-77
2022/05/24 06:33:25;;;;;;;14.70;8.20;;;25.30;99.90;;;;;;5054502;28;20044;-77
2022/05/24 06:35:53;;;;;;;15.95;7.93;;;25.60;99.90;;;;;;5055108;28;20045;-77
2022/05/24 06:38:22;;;;;;;16.23;8.80;;;25.80;99.90;;;;;;5053810;28;20515;-77
2022/05/24 06:40:50;;;;;;;14.18;8.55;;;26.00;99.90;;;;;;5052372;28;20131;-77
2022/05/24 06:43:17;;;;;;;11.77;8.60;;;26.40;99.90;;;;;;5053569;28;20049;-77
2022/05/24 06:45:45;;;;;;;13.45;8.40;;;26.60;99.90;;;;;;5052686;28;20508;-77
2022/05/24 06:48:13;;;;;;;12.18;8.40;;;26.50;99.90;;;;;;5052467;28;20144;-77
2022/05/24 06:50:42;;;;;;;16.35;9.90;;;26.70;99.90;;;;;;5052153;28;20052;-76
2022/05/24 06:53:10;;;;;;;15.55;10.18;;;27.00;99.90;;;;;;5052370;28;20045;-77
2022/05/24 06:55:39;;;;;;;11.27;7.28;;;27.30;99.90;;;;;;5053556;28;20037;-77
2022/05/24 06:58:07;;;;;;;12.85;7.55;;;27.50;99.90;;;;;;5053685;28;20408;-77
2022/05/24 07:03:21;;;;;;;11.93;7.17;;;27.00;99.90;;;;;;5053111;28;20077;-77
2022/05/24 07:05:49;;;;;;;17.08;8.00;;;26.90;99.90;;;;;;5052446;28;20745;-77
2022/05/24 07:08:19;;;;;;;13.18;6.18;;;26.70;99.90;;;;;;5053743;28;20132;-77
2022/05/24 07:10:48;;;;;;;10.88;6.80;;;26.60;99.90;;;;;;5053670;28;20055;-77
2022/05/24 07:13:19;;;;;;;16.08;7.72;;;26.70;99.90;;;;;;5053010;28;20492;-76
2022/05/24 07:15:47;;;;;;;11.27;7.05;;;26.90;99.90;;;;;;5052206;28;20040;-77
2022/05/24 07:18:14;;;;;;;14.45;6.43;;;27.10;99.90;;;;;;5053269;28;20124;-77
2022/05/24 07:20:42;;;;;;;12.73;7.75;;;27.30;99.90;;;;;;5053329;28;20400;-77
2022/05/24 07:23:12;;;;;;;11.43;7.20;;;27.50;99.90;;;;;;5053021;28;20041;-77
2022/05/24 07:25:41;;;;;;;11.63;6.53;;;27.80;99.90;;;;;;5053443;28;20045;-77
2022/05/24 07:28:12;;;;;;;17.65;7.70;;;28.00;99.90;;;;;;5053515;28;20049;-77
2022/05/24 07:30:40;;;;;;;14.93;7.18;;;28.50;99.90;;;;;;5053622;28;20052;-77
2022/05/24 07:33:07;;;;;;;9.93;6.57;;;28.70;99.90;;;;;;5053328;28;20472;-77
2022/05/24 07:35:36;;;;;;;11.40;6.20;;;28.80;99.90;;;;;;5053387;28;20041;-77
2022/05/24 07:38:03;;;;;;;11.27;6.75;;;28.60;99.90;;;;;;5052070;28;20068;-77
2022/05/24 07:46:09;;;;;;;11.55;5.95;;;27.90;99.90;;;;;;5057239;28;20060;-76
2022/05/24 07:48:37;;;;;;;11.57;6.83;;;27.70;99.90;;;;;;5057106;28;20041;-76
2022/05/24 07:51:05;;;;;;;11.75;6.68;;;27.50;99.90;;;;;;5057230;28;20511;-76
2022/05/24 07:53:33;;;;;;;12.95;7.00;;;27.40;99.90;;;;;;5056831;28;20420;-76
2022/05/24 07:56:01;;;;;;;11.07;7.50;;;27.50;99.90;;;;;;5057588;28;20094;-77
2022/05/24 07:58:30;;;;;;;9.48;7.50;;;27.60;99.90;;;;;;5056395;28;20127;-76
2022/05/24 08:00:59;;;;;;;12.82;6.90;;;27.90;99.90;;;;;;5056018;28;20056;-76
2022/05/24 08:03:27;;;;;;;9.18;6.97;;;28.40;99.90;;;;;;5056459;28;20064;-76
2022/05/24 08:05:55;;;;;;;8.23;6.15;;;28.70;99.90;;;;;;5056679;28;20052;-77
2022/05/24 08:08:23;;;;;;;11.70;5.75;;;28.90;99.90;;;;;;5057442;28;20408;-77
2022/05/24 08:10:51;;;;;;;11.73;7.80;;;28.80;99.90;;;;;;5054833;28;20056;-78
2022/05/24 08:13:20;;;;;;;9.20;5.82;;;28.70;99.90;;;;;;5056130;28;20037;-77
2022/05/24 08:15:52;;;;;;;13.00;6.20;;;28.70;99.90;;;;;;5056301;28;20410;-76
2022/05/24 08:18:19;;;;;;;9.77;6.10;;;28.60;99.90;;;;;;5056650;28;20558;-77
2022/05/24 08:20:47;;;;;;;10.15;5.55;;;28.70;99.90;;;;;;5056912;28;20037;-77
2022/05/24 08:23:15;;;;;;;8.98;6.00;;;28.70;99.90;;;;;;5056853;28;20422;-77
2022/05/24 08:25:42;;;;;;;10.88;6.10;;;28.80;99.90;;;;;;5056926;28;20033;-77
2022/05/24 08:28:10;;;;;;;14.00;9.75;;;28.80;99.90;;;;;;5056902;28;20037;-78
2022/05/24 08:30:38;;;;;;;15.95;10.45;;;29.10;99.90;;;;;;5054215;28;20041;-77
2022/05/24 08:33:07;;;;;;;9.95;6.95;;;29.40;99.90;;;;;;5055123;28;20033;-77
2022/05/24 08:35:36;;;;;;;9.90;5.63;;;29.10;99.90;;;;;;5056689;28;20045;-77
2022/05/24 08:38:05;;;;;;;10.48;5.47;;;29.10;99.90;;;;;;5056877;28;20520;-76
2022/05/24 08:40:35;;;;;;;10.98;7.10;;;28.60;99.90;;;;;;5056965;28;20040;-76
2022/05/24 08:43:31;;;;;;;13.15;5.75;;;28.80;99.90;;;;;;5055864;28;20041;-77
2022/05/24 08:48:52;;;;;;;15.85;5.85;;;29.20;99.90;;;;;;5055200;28;20116;-77
2022/05/24 08:51:24;;;;;;;10.18;5.00;;;29.20;99.90;;;;;;5055910;28;20037;-77
2022/05/24 08:53:56;;;;;;;12.27;6.40;;;29.00;99.90;;;;;;5055574;28;20107;-77
2022/05/24 08:56:29;;;;;;;14.25;5.82;;;29.10;99.90;;;;;;5056176;28;20048;-77
2022/05/24 08:59:01;;;;;;;11.98;6.15;;;29.10;99.90;;;;;;5054665;28;20052;-77
2022/05/24 09:01:32;;;;;;;11.38;5.90;;;29.20;99.90;;;;;;5055987;28;20507;-77
2022/05/24 09:04:02;;;;;;;9.13;5.13;;;29.30;99.90;;;;;;5054076;28;20455;-78
2022/05/24 09:06:38;;;;;;;14.70;5.32;;;29.30;99.90;;;;;;5055700;28;20049;-77
2022/05/24 09:09:41;;;;;;;11.85;5.97;;;29.40;99.90;;;;;;5055751;28;20037;-78
2022/05/24 09:12:22;;;;;;;12.60;5.68;;;29.50;99.90;;;;;;5052742;28;20043;-77
2022/05/24 09:15:03;;;;;;;13.02;6.28;;;29.50;99.90;;;;;;5056671;28;20040;-78
2022/05/24 09:17:39;;;;;;;13.93;5.28;;;29.50;99.90;;;;;;5057034;28;20044;-77
2022/05/24 09:20:14;;;;;;;16.30;8.73;;;29.60;99.90;;;;;;5056154;28;20059;-77
2022/05/24 09:22:41;;;;;;;13.47;7.07;;;30.00;99.90;;;;;;5056731;28;20072;-77
2022/05/24 09:25:09;;;;;;;11.75;5.97;;;30.30;99.90;;;;;;5057053;28;20511;-77
2022/05/24 09:27:53;;;;;;;13.30;9.65;;;30.50;99.90;;;;;;5056896;28;20123;-78
2022/05/24 09:30:35;;;;;;;9.20;6.03;;;30.60;99.90;;;;;;5054116;28;20069;-77
2022/05/24 09:33:24;;;;;;;16.13;7.53;;;30.50;99.90;;;;;;5055560;28;20120;-77
2022/05/24 09:35:58;;;;;;;11.75;5.72;;;30.50;99.90;;;;;;5061882;28;20115;-77
2022/05/24 09:38:33;;;;;;;14.05;6.50;;;30.60;99.90;;;;;;5061132;28;20049;-77
2022/05/24 09:41:11;;;;;;;14.25;6.45;;;30.80;99.90;;;;;;5059981;28;20497;-78
2022/05/24 09:43:40;;;;;;;12.55;6.97;;;31.00;99.90;;;;;;5057498;28;20041;-77
2022/05/24 09:46:11;;;;;;;10.48;6.68;;;31.20;99.90;;;;;;5055387;28;20106;-77
2022/05/24 09:48:54;;;;;;;14.02;6.25;;;31.30;99.90;;;;;;5057521;28;20507;-77
2022/05/24 09:51:27;;;;;;;11.00;5.82;;;31.20;99.90;;;;;;5056130;28;20049;-77
2022/05/24 09:53:56;;;;;;;14.95;6.80;;;31.10;99.90;;;;;;5054942;28;20045;-77
2022/05/24 09:56:28;;;;;;;13.20;7.20;;;31.20;99.90;;;;;;5055070;28;20107;-77
2022/05/24 09:58:58;;;;;;;11.75;6.28;;;31.70;99.90;;;;;;5054977;28;20458;-78
2022/05/24 10:01:43;;;;;;;14.52;6.45;;;32.00;99.90;;;;;;5055351;28;20049;-77
2022/05/24 10:04:19;;;;;;;13.32;5.50;;;32.10;99.90;;;;;;5054665;28;20056;-77
2022/05/24 10:06:58;;;;;;;14.68;6.63;;;32.30;99.90;;;;;;5056531;28;20037;-78
2022/05/24 10:09:55;;;;;;;12.52;6.45;;;32.40;99.90;;;;;;5056124;28;20294;-77
2022/05/24 10:12:32;;;;;;;17.80;5.45;;;32.00;99.90;;;;;;5056604;28;20503;-78
2022/05/24 10:15:10;;;;;;;12.07;6.80;;;31.80;99.90;;;;;;5056097;28;20044;-78
2022/05/24 10:17:49;;;;;;;15.93;6.60;;;31.50;99.90;;;;;;5057127;28;20045;-78
2022/05/24 10:20:24;;;;;;;9.43;5.57;;;31.50;99.90;;;;;;5057613;28;20056;-78
2022/05/24 10:23:02;;;;;;;12.10;6.30;;;31.40;99.90;;;;;;5058126;28;20048;-78
2022/05/24 10:25:36;;;;;;;10.20;4.82;;;31.60;99.90;;;;;;5055592;28;20102;-77
2022/05/24 10:28:17;;;;;;;13.68;5.53;;;31.50;99.90;;;;;;5059775;28;20056;-79
2022/05/24 10:30:56;;;;;;;10.60;5.15;;;31.20;99.90;;;;;;5062233;28;20055;-81
2022/05/24 10:39:41;;;;;;;22.33;9.57;;;31.40;99.90;;;;;;5058297;28;20045;-81
2022/05/24 10:42:22;;;;;;;17.38;6.68;;;31.50;99.90;;;;;;5060323;28;20037;-82
2022/05/24 10:44:55;;;;;;;15.68;6.35;;;31.40;99.90;;;;;;5057743;28;20045;-81
2022/05/24 10:47:28;;;;;;;16.75;5.80;;;31.20;99.90;;;;;;5059923;28;20033;-81
2022/05/24 10:50:01;;;;;;;14.50;5.50;;;30.90;99.90;;;;;;5059159;28;20055;-82
2022/05/24 10:52:35;;;;;;;11.30;5.90;;;31.00;99.90;;;;;;5058995;28;20041;-82
2022/05/24 10:55:12;;;;;;;15.35;7.97;;;31.10;99.90;;;;;;5059817;28;20049;-80
2022/05/24 10:57:46;;;;;;;18.00;7.07;;;31.10;99.90;;;;;;5059889;28;20037;-80
2022/05/24 11:00:17;;;;;;;16.38;8.75;;;31.20;99.90;;;;;;5060224;28;20048;-81
2022/05/24 11:02:50;;;;;;;14.85;6.93;;;31.20;99.90;;;;;;5058490;28;20139;-81
2022/05/24 11:05:23;;;;;;;11.57;5.95;;;31.00;99.90;;;;;;5061754;28;20072;-80
2022/05/24 11:07:56;;;;;;;21.25;12.93;;;30.80;99.90;;;;;;5063519;28;20492;-80
2022/05/24 11:10:29;;;;;;;13.30;6.90;;;30.50;99.90;;;;;;5061968;28;20404;-80
2022/05/24 11:12:59;;;;;;;14.27;5.85;;;30.20;99.90;;;;;;5064663;28;20044;-80
2022/05/24 11:15:34;;;;;;;13.88;5.88;;;30.20;99.90;;;;;;5052989;28;20047;-81
2022/05/24 11:18:03;;;;;;;10.57;5.35;;;30.40;99.90;;;;;;5071470;28;20032;-80
2022/05/24 11:20:37;;;;;;;18.25;5.35;;;30.70;99.90;;;;;;5073351;28;20063;-78
2022/05/24 11:23:14;;;;;;;11.20;4.95;;;31.20;99.90;;;;;;5072441;28;20044;-77
2022/05/24 11:25:49;;;;;;;15.95;6.70;;;31.60;99.90;;;;;;5053839;28;20493;-77
2022/05/24 11:28:25;;;;;;;17.13;6.32;;;31.90;99.90;;;;;;5039981;28;20508;-76
2022/05/24 11:30:53;;;;;;;11.48;5.82;;;31.90;99.90;;;;;;5033654;28;20052;-77
2022/05/24 11:33:39;;;;;;;10.73;5.30;;;32.10;99.90;;;;;;5043849;28;20052;-77
2022/05/24 11:36:36;;;;;;;11.98;5.10;;;32.20;99.90;;;;;;5054263;28;20443;-77
2022/05/24 11:39:15;;;;;;;12.07;6.18;;;32.30;99.90;;;;;;5054227;28;20045;-78
2022/05/24 11:41:44;;;;;;;11.32;5.43;;;32.10;99.90;;;;;;5054013;28;20049;-77
2022/05/24 11:44:32;;;;;;;8.52;4.38;;;31.90;99.90;;;;;;5052932;28;20047;-77
2022/05/24 11:47:00;;;;;;;9.57;4.93;;;31.60;99.90;;;;;;5053552;28;20045;-77
2022/05/24 11:50:05;;;;;;;12.05;5.00;;;31.50;99.90;;;;;;5053688;28;20044;-77
2022/05/24 11:53:02;;;;;;;11.90;6.35;;;31.40;99.90;;;;;;5033912;28;20041;-76
2022/05/24 11:55:51;;;;;;;9.63;5.03;;;31.10;99.90;;;;;;5033780;28;20484;-76
2022/05/24 11:58:51;;;;;;;10.13;4.75;;;30.90;99.90;;;;;;5034328;28;20041;-78
2022/05/24 12:01:52;;;;;;;10.10;4.60;;;30.90;99.90;;;;;;5034133;28;20053;-78
2022/05/24 12:10:41;;;;;;;9.98;5.05;;;30.60;99.90;;;;;;4938428;29;20124;-78
2022/05/24 12:13:54;;;;;;;11.75;6.28;;;30.50;99.90;;;;;;4938266;29;20392;-77
2022/05/24 12:16:42;;;;;;;12.45;6.97;;;30.50;99.90;;;;;;4954872;29;20193;-77
2022/05/24 12:19:11;;;;;;;9.57;5.60;;;30.50;99.90;;;;;;4953951;29;20058;-77
2022/05/24 12:22:00;;;;;;;10.30;5.72;;;30.40;99.90;;;;;;4953293;28;20055;-77
2022/05/24 12:24:54;;;;;;;11.68;5.78;;;30.40;99.90;;;;;;4953265;29;20491;-76
2022/05/24 12:27:47;;;;;;;15.30;6.05;;;30.50;99.90;;;;;;4958071;28;20121;-77
2022/05/24 12:30:49;;;;;;;14.40;5.13;;;30.60;99.90;;;;;;4966828;28;20051;-77
2022/05/24 12:33:33;;;;;;;11.77;5.03;;;30.70;99.90;;;;;;4974056;28;20051;-76
2022/05/24 12:36:16;;;;;;;22.27;16.80;;;30.70;99.90;;;;;;5042631;28;20057;-77
2022/05/24 12:38:50;;;;;;;16.73;6.50;;;30.90;99.90;;;;;;5057238;28;20136;-80
2022/05/24 12:41:25;;;;;;;12.75;5.18;;;30.80;99.90;;;;;;5059652;28;20500;-78
2022/05/24 12:43:58;;;;;;;14.50;6.47;;;30.80;99.90;;;;;;5057617;28;20103;-79
2022/05/24 12:46:31;;;;;;;11.73;5.53;;;30.90;99.90;;;;;;5060111;28;20077;-77
2022/05/24 12:49:02;;;;;;;11.45;4.80;;;30.80;99.90;;;;;;5060172;28;20377;-78
2022/05/24 12:51:29;;;;;;;13.70;7.78;;;30.90;99.90;;;;;;5056310;28;20049;-77
2022/05/24 12:54:08;;;;;;;14.63;5.18;;;30.70;99.90;;;;;;5057315;28;20051;-79
2022/05/24 12:56:36;;;;;;;14.25;5.47;;;30.70;99.90;;;;;;5054636;28;20052;-77
2022/05/24 12:59:11;;;;;;;12.18;6.88;;;30.60;99.90;;;;;;5056449;28;20049;-78
2022/05/24 13:01:43;;;;;;;14.38;7.00;;;30.50;99.90;;;;;;5058332;28;20047;-77
2022/05/24 13:04:19;;;;;;;9.98;5.18;;;30.50;99.90;;;;;;5058985;28;20064;-78
2022/05/24 13:07:19;;;;;;;13.73;5.80;;;30.60;99.90;;;;;;5057039;28;20069;-78
2022/05/24 13:09:48;;;;;;;;;;;30.50;99.90;;;;;;5059446;28;20191;-79
2022/05/24 13:12:16;;;;;;;11.63;5.90;;;30.60;99.90;;;;;;5059059;28;20003;-78
2022/05/24 13:14:56;;;;;;;12.65;6.85;;;30.80;99.90;;;;;;5057162;28;20067;-78
2022/05/24 13:17:28;;;;;;;11.48;5.55;;;30.90;99.90;;;;;;5057261;28;20033;-77
2022/05/24 13:19:59;;;;;;;10.05;5.00;;;30.70;99.90;;;;;;5055928;28;20437;-78
2022/05/24 13:22:40;;;;;;;12.07;4.93;;;30.70;99.90;;;;;;5055718;28;20192;-77
2022/05/24 13:25:15;;;;;;;13.02;5.10;;;30.60;99.90;;;;;;5057756;28;20120;-78
2022/05/24 13:28:06;;;;;;;16.75;5.57;;;30.30;99.90;;;;;;5059150;28;20047;-78
2022/05/24 13:33:35;;;;;;;11.63;5.32;;;30.70;99.90;;;;;;5056865;28;20045;-78
2022/05/24 13:36:21;;;;;;;10.75;4.63;;;30.70;99.90;;;;;;5058781;28;20376;-78
2022/05/24 13:38:53;;;;;;;15.20;5.70;;;30.50;99.90;;;;;;5058578;28;20071;-78
2022/05/24 13:41:34;;;;;;;11.55;5.50;;;30.50;99.90;;;;;;5054430;28;20084;-79
2022/05/24 13:44:18;;;;;;;11.15;5.70;;;30.60;99.90;;;;;;5059347;28;20033;-78
2022/05/24 13:46:54;;;;;;;16.75;5.60;;;30.80;99.90;;;;;;5062812;28;20400;-78
2022/05/24 13:49:41;;;;;;;16.75;6.07;;;30.90;99.90;;;;;;5059480;28;20037;-77